sensor_id;sensor_type;location;lat;lon;timestamp;pressure;altitude;pressure_sealevel;temperature;humidity
59043;BME280;44826;51.596;5.624;2022-09-17T00:00:48;101230.16;;;9.95;83.04
59043;BME280;44826;51.596;5.624;2022-09-17T00:03:14;101227.56;;;9.94;83.09
59043;BME280;44826;51.596;5.624;2022-09-17T00:05:39;101229.34;;;9.93;83.18
59043;BME280;44826;51.596;5.624;2022-09-17T00:08:06;101234.50;;;9.95;83.24
59043;BME280;44826;51.596;5.624;2022-09-17T00:10:36;101228.41;;;9.96;83.55
59043;BME280;44826;51.596;5.624;2022-09-17T00:13:02;101240.53;;;9.98;83.39
59043;BME280;44826;51.596;5.624;2022-09-17T00:15:28;101236.16;;;9.99;83.47
59043;BME280;44826;51.596;5.624;2022-09-17T00:17:54;101245.63;;;10.01;83.43
59043;BME280;44826;51.596;5.624;2022-09-17T00:20:23;101245.63;;;10.01;83.29
59043;BME280;44826;51.596;5.624;2022-09-17T00:22:50;101245.63;;;10.03;83.89
59043;BME280;44826;51.596;5.624;2022-09-17T00:25:15;101242.13;;;10.06;83.64
59043;BME280;44826;51.596;5.624;2022-09-17T00:27:41;101249.03;;;10.07;83.57
59043;BME280;44826;51.596;5.624;2022-09-17T00:30:07;101240.41;;;10.05;83.37
59043;BME280;44826;51.596;5.624;2022-09-17T00:32:32;101254.28;;;10.03;83.85
59043;BME280;44826;51.596;5.624;2022-09-17T00:34:57;101243.91;;;10.02;83.34
59043;BME280;44826;51.596;5.624;2022-09-17T00:37:23;101243.91;;;10.02;83.50
59043;BME280;44826;51.596;5.624;2022-09-17T00:39:49;101250.84;;;10.01;83.31
59043;BME280;44826;51.596;5.624;2022-09-17T00:42:15;101254.31;;;10.00;83.41
59043;BME280;44826;51.596;5.624;2022-09-17T00:44:50;101258.69;;;10.00;83.35
59043;BME280;44826;51.596;5.624;2022-09-17T00:47:32;101258.69;;;10.00;83.26
59043;BME280;44826;51.596;5.624;2022-09-17T00:52:46;101259.50;;;10.02;83.00
59043;BME280;44826;51.596;5.624;2022-09-17T00:55:25;101258.63;;;10.03;82.66
59043;BME280;44826;51.596;5.624;2022-09-17T00:57:54;101265.53;;;10.04;82.96
59043;BME280;44826;51.596;5.624;2022-09-17T01:00:21;101262.06;;;10.03;82.88
59043;BME280;44826;51.596;5.624;2022-09-17T01:02:47;101268.16;;;10.04;82.95
59043;BME280;44826;51.596;5.624;2022-09-17T01:05:13;101263.78;;;10.05;82.75
59043;BME280;44826;51.596;5.624;2022-09-17T01:15:48;101276.78;;;10.05;82.37
59043;BME280;44826;51.596;5.624;2022-09-17T01:18:34;101276.81;;;10.03;82.42
59043;BME280;44826;51.596;5.624;2022-09-17T01:21:24;101273.34;;;10.02;82.04
59043;BME280;44826;51.596;5.624;2022-09-17T01:24:15;101279.44;;;10.01;82.09
59043;BME280;44826;51.596;5.624;2022-09-17T01:32:53;101287.28;;;10.00;81.69
59043;BME280;44826;51.596;5.624;2022-09-17T01:38:12;101292.50;;;9.98;81.55
59043;BME280;44826;51.596;5.624;2022-09-17T01:40:46;101293.38;;;9.96;81.75
59043;BME280;44826;51.596;5.624;2022-09-17T01:43:20;101295.09;;;9.97;81.69
59043;BME280;44826;51.596;5.624;2022-09-17T01:45:50;101294.28;;;9.95;81.82
59043;BME280;44826;51.596;5.624;2022-09-17T01:48:18;101295.16;;;9.94;81.83
59043;BME280;44826;51.596;5.624;2022-09-17T01:51:11;101297.78;;;9.92;81.66
59043;BME280;44826;51.596;5.624;2022-09-17T01:53:44;101298.66;;;9.91;81.72
59043;BME280;44826;51.596;5.624;2022-09-17T01:56:17;101300.38;;;9.91;81.72
59043;BME280;44826;51.596;5.624;2022-09-17T01:59:11;101298.72;;;9.90;81.73
59043;BME280;44826;51.596;5.624;2022-09-17T02:01:40;101291.78;;;9.87;82.31
59043;BME280;44826;51.596;5.624;2022-09-17T02:04:22;101295.28;;;9.87;81.97
59043;BME280;44826;51.596;5.624;2022-09-17T02:06:55;101290.97;;;9.85;82.47
59043;BME280;44826;51.596;5.624;2022-09-17T02:09:27;101293.59;;;9.83;82.39
59043;BME280;44826;51.596;5.624;2022-09-17T02:11:58;101297.91;;;9.83;82.32
59043;BME280;44826;51.596;5.624;2022-09-17T02:14:55;101304.88;;;9.82;81.77
59043;BME280;44826;51.596;5.624;2022-09-17T02:17:26;101302.31;;;9.81;82.11
59043;BME280;44826;51.596;5.624;2022-09-17T02:19:56;101302.31;;;9.79;82.32
59043;BME280;44826;51.596;5.624;2022-09-17T02:22:36;101307.50;;;9.79;82.13
59043;BME280;44826;51.596;5.624;2022-09-17T02:27:56;101302.31;;;9.79;82.32
59043;BME280;44826;51.596;5.624;2022-09-17T02:30:22;101309.19;;;9.83;81.50
59043;BME280;44826;51.596;5.624;2022-09-17T02:32:48;101292.72;;;9.83;82.32
59043;BME280;44826;51.596;5.624;2022-09-17T02:35:14;101297.91;;;9.84;82.65
59043;BME280;44826;51.596;5.624;2022-09-17T02:37:40;101304.81;;;9.85;82.82
59043;BME280;44826;51.596;5.624;2022-09-17T02:40:07;101310.91;;;9.84;82.41
59043;BME280;44826;51.596;5.624;2022-09-17T02:45:47;101314.38;;;9.83;82.39
59043;BME280;44826;51.596;5.624;2022-09-17T02:51:21;101313.56;;;9.80;82.90
59043;BME280;44826;51.596;5.624;2022-09-17T02:54:07;101314.41;;;9.82;83.18
59043;BME280;44826;51.596;5.624;2022-09-17T02:56:54;101313.53;;;9.81;83.01
59043;BME280;44826;51.596;5.624;2022-09-17T02:59:25;101312.66;;;9.82;82.97
59043;BME280;44826;51.596;5.624;2022-09-17T03:02:24;101318.66;;;9.86;82.78
59043;BME280;44826;51.596;5.624;2022-09-17T03:04:53;101311.75;;;9.86;82.93
59043;BME280;44826;51.596;5.624;2022-09-17T03:07:20;101302.19;;;9.89;83.22
59043;BME280;44826;51.596;5.624;2022-09-17T03:09:46;101303.81;;;9.93;83.07
59043;BME280;44826;51.596;5.624;2022-09-17T03:12:12;101309.84;;;9.96;83.25
59043;BME280;44826;51.596;5.624;2022-09-17T03:14:37;101305.50;;;9.97;83.09
59043;BME280;44826;51.596;5.624;2022-09-17T03:17:03;101306.38;;;9.97;83.12
59043;BME280;44826;51.596;5.624;2022-09-17T03:19:28;101312.38;;;9.99;82.77
59043;BME280;44826;51.596;5.624;2022-09-17T03:21:54;101312.44;;;9.98;82.83
59043;BME280;44826;51.596;5.624;2022-09-17T03:24:19;101303.78;;;9.96;82.90
59043;BME280;44826;51.596;5.624;2022-09-17T03:26:44;101306.44;;;9.94;82.75
59043;BME280;44826;51.596;5.624;2022-09-17T03:29:12;101311.63;;;9.94;82.61
59043;BME280;44826;51.596;5.624;2022-09-17T03:31:37;101309.91;;;9.93;82.47
59043;BME280;44826;51.596;5.624;2022-09-17T03:34:02;101311.63;;;9.93;82.42
59043;BME280;44826;51.596;5.624;2022-09-17T03:36:27;101315.09;;;9.93;82.07
59043;BME280;44826;51.596;5.624;2022-09-17T03:38:54;101319.41;;;9.93;81.96
59043;BME280;44826;51.596;5.624;2022-09-17T03:41:20;101317.72;;;9.92;82.19
59043;BME280;44826;51.596;5.624;2022-09-17T03:43:45;101312.50;;;9.92;81.82
59043;BME280;44826;51.596;5.624;2022-09-17T03:46:10;101303.81;;;9.93;81.80
59043;BME280;44826;51.596;5.624;2022-09-17T03:48:36;101298.63;;;9.93;81.63
59043;BME280;44826;51.596;5.624;2022-09-17T03:51:04;101300.34;;;9.94;81.45
59043;BME280;44826;51.596;5.624;2022-09-17T03:53:29;101305.53;;;9.94;81.54
59043;BME280;44826;51.596;5.624;2022-09-17T03:56:03;101314.22;;;9.94;81.33
59043;BME280;44826;51.596;5.624;2022-09-17T03:58:29;101315.94;;;9.95;81.03
59043;BME280;44826;51.596;5.624;2022-09-17T04:00:55;101320.25;;;9.95;80.67
59043;BME280;44826;51.596;5.624;2022-09-17T04:03:23;101327.19;;;9.96;80.33
59043;BME280;44826;51.596;5.624;2022-09-17T04:05:49;101341.94;;;9.95;80.15
59043;BME280;44826;51.596;5.624;2022-09-17T04:08:14;101348.84;;;9.96;80.75
59043;BME280;44826;51.596;5.624;2022-09-17T04:10:40;101360.97;;;9.96;80.46
59043;BME280;44826;51.596;5.624;2022-09-17T04:13:05;101336.69;;;9.97;79.91
59043;BME280;44826;51.596;5.624;2022-09-17T04:15:30;101335.00;;;9.94;80.18
59043;BME280;44826;51.596;5.624;2022-09-17T04:17:56;101326.41;;;9.89;79.84
59043;BME280;44826;51.596;5.624;2022-09-17T04:20:23;101333.44;;;9.82;80.50
59043;BME280;44826;51.596;5.624;2022-09-17T04:22:48;101325.72;;;9.76;80.88
59043;BME280;44826;51.596;5.624;2022-09-17T04:25:13;101331.00;;;9.73;81.68
59043;BME280;44826;51.596;5.624;2022-09-17T04:27:39;101331.03;;;9.70;81.65
59043;BME280;44826;51.596;5.624;2022-09-17T04:30:04;101331.03;;;9.68;81.82
59043;BME280;44826;51.596;5.624;2022-09-17T04:32:30;101326.72;;;9.67;81.93
59043;BME280;44826;51.596;5.624;2022-09-17T04:34:55;101331.94;;;9.66;82.48
59043;BME280;44826;51.596;5.624;2022-09-17T04:37:20;101336.28;;;9.65;82.53
59043;BME280;44826;51.596;5.624;2022-09-17T04:39:46;101339.75;;;9.66;82.72
59043;BME280;44826;51.596;5.624;2022-09-17T04:42:11;101328.47;;;9.65;82.86
59043;BME280;44826;51.596;5.624;2022-09-17T04:44:36;101338.03;;;9.65;82.48
59043;BME280;44826;51.596;5.624;2022-09-17T04:47:02;101327.66;;;9.63;82.60
59043;BME280;44826;51.596;5.624;2022-09-17T04:49:27;101321.59;;;9.63;82.91
59043;BME280;44826;51.596;5.624;2022-09-17T04:51:55;101324.19;;;9.63;83.26
59043;BME280;44826;51.596;5.624;2022-09-17T04:54:20;101338.06;;;9.62;83.67
59043;BME280;44826;51.596;5.624;2022-09-17T04:56:46;101338.09;;;9.60;83.27
59043;BME280;44826;51.596;5.624;2022-09-17T04:59:11;101336.38;;;9.59;83.10
59043;BME280;44826;51.596;5.624;2022-09-17T05:01:37;101342.44;;;9.58;83.61
59043;BME280;44826;51.596;5.624;2022-09-17T05:04:02;101340.75;;;9.55;83.23
59043;BME280;44826;51.596;5.624;2022-09-17T05:06:27;101342.50;;;9.55;83.26
59043;BME280;44826;51.596;5.624;2022-09-17T05:08:53;101345.09;;;9.55;83.31
59043;BME280;44826;51.596;5.624;2022-09-17T05:11:18;101339.91;;;9.53;83.11
59043;BME280;44826;51.596;5.624;2022-09-17T05:13:43;101346.88;;;9.51;83.11
59043;BME280;44826;51.596;5.624;2022-09-17T05:16:08;101342.56;;;9.50;82.89
59043;BME280;44826;51.596;5.624;2022-09-17T05:18:34;101351.19;;;9.51;83.14
59043;BME280;44826;51.596;5.624;2022-09-17T05:20:59;101352.06;;;9.50;82.98
59043;BME280;44826;51.596;5.624;2022-09-17T05:23:24;101357.25;;;9.50;83.17
59043;BME280;44826;51.596;5.624;2022-09-17T05:25:50;101354.69;;;9.48;82.83
59043;BME280;44826;51.596;5.624;2022-09-17T05:28:16;101352.97;;;9.47;83.00
59043;BME280;44826;51.596;5.624;2022-09-17T05:30:42;101364.25;;;9.48;83.35
59043;BME280;44826;51.596;5.624;2022-09-17T05:33:07;101369.44;;;9.46;83.07
59043;BME280;44826;51.596;5.624;2022-09-17T05:35:33;101371.19;;;9.44;82.84
59043;BME280;44826;51.596;5.624;2022-09-17T05:38:02;101368.63;;;9.41;83.23
59043;BME280;44826;51.596;5.624;2022-09-17T05:40:28;101379.00;;;9.41;83.05
59043;BME280;44826;51.596;5.624;2022-09-17T05:43:01;101366.91;;;9.40;83.41
59043;BME280;44826;51.596;5.624;2022-09-17T05:45:28;101360.84;;;9.41;83.47
59043;BME280;44826;51.596;5.624;2022-09-17T05:47:58;101371.19;;;9.44;83.15
59043;BME280;44826;51.596;5.624;2022-09-17T05:50:24;101376.38;;;9.44;83.17
59043;BME280;44826;51.596;5.624;2022-09-17T05:52:50;101372.03;;;9.46;83.25
59043;BME280;44826;51.596;5.624;2022-09-17T05:55:17;101371.19;;;9.46;83.10
59043;BME280;44826;51.596;5.624;2022-09-17T05:57:42;101376.31;;;9.49;82.78
59043;BME280;44826;51.596;5.624;2022-09-17T06:00:08;101376.31;;;9.50;82.99
59043;BME280;44826;51.596;5.624;2022-09-17T06:02:34;101375.41;;;9.54;83.24
59043;BME280;44826;51.596;5.624;2022-09-17T06:04:59;101381.41;;;9.58;83.35
59043;BME280;44826;51.596;5.624;2022-09-17T06:07:26;101392.63;;;9.63;82.72
59043;BME280;44826;51.596;5.624;2022-09-17T06:09:51;101397.78;;;9.65;82.66
59043;BME280;44826;51.596;5.624;2022-09-17T06:12:17;101402.94;;;9.68;82.62
59043;BME280;44826;51.596;5.624;2022-09-17T06:14:42;101397.75;;;9.68;82.45
59043;BME280;44826;51.596;5.624;2022-09-17T06:17:07;101398.59;;;9.68;82.51
59043;BME280;44826;51.596;5.624;2022-09-17T06:19:33;101400.31;;;9.71;82.14
59043;BME280;44826;51.596;5.624;2022-09-17T06:21:58;101411.53;;;9.71;82.22
59043;BME280;44826;51.596;5.624;2022-09-17T06:24:23;101403.75;;;9.73;82.03
59043;BME280;44826;51.596;5.624;2022-09-17T06:26:50;101408.91;;;9.75;82.42
59043;BME280;44826;51.596;5.624;2022-09-17T06:29:16;101407.13;;;9.80;81.87
59043;BME280;44826;51.596;5.624;2022-09-17T06:31:41;101410.56;;;9.82;81.99
59043;BME280;44826;51.596;5.624;2022-09-17T06:34:10;101400.97;;;9.85;82.16
59043;BME280;44826;51.596;5.624;2022-09-17T06:36:35;101404.34;;;9.91;82.24
59043;BME280;44826;51.596;5.624;2022-09-17T06:39:01;101395.63;;;9.95;81.86
59043;BME280;44826;51.596;5.624;2022-09-17T06:41:26;101395.59;;;9.98;81.49
59043;BME280;44826;51.596;5.624;2022-09-17T06:43:52;101391.28;;;9.98;80.97
59043;BME280;44826;51.596;5.624;2022-09-17T06:46:18;101389.53;;;9.99;80.39
59043;BME280;44826;51.596;5.624;2022-09-17T06:48:44;101386.88;;;10.02;80.93
59043;BME280;44826;51.596;5.624;2022-09-17T06:51:10;101390.28;;;10.07;80.45
59043;BME280;44826;51.596;5.624;2022-09-17T06:53:36;101383.25;;;10.12;80.06
59043;BME280;44826;51.596;5.624;2022-09-17T06:56:03;101396.22;;;10.15;79.99
59043;BME280;44826;51.596;5.624;2022-09-17T06:58:29;101399.69;;;10.16;80.67
59043;BME280;44826;51.596;5.624;2022-09-17T07:00:59;101389.25;;;10.17;80.29
59043;BME280;44826;51.596;5.624;2022-09-17T07:03:29;101396.09;;;10.23;80.37
59043;BME280;44826;51.596;5.624;2022-09-17T07:05:55;101398.66;;;10.25;79.53
59043;BME280;44826;51.596;5.624;2022-09-17T07:08:20;101401.25;;;10.26;79.41
59043;BME280;44826;51.596;5.624;2022-09-17T07:10:46;101402.06;;;10.30;79.47
59043;BME280;44826;51.596;5.624;2022-09-17T07:13:11;101400.28;;;10.32;78.65
59043;BME280;44826;51.596;5.624;2022-09-17T07:15:36;101406.38;;;10.32;78.10
59043;BME280;44826;51.596;5.624;2022-09-17T07:18:11;101406.28;;;10.36;77.97
59043;BME280;44826;51.596;5.624;2022-09-17T07:20:36;101409.75;;;10.38;77.61
59043;BME280;44826;51.596;5.624;2022-09-17T07:23:03;101409.72;;;10.41;77.36
59043;BME280;44826;51.596;5.624;2022-09-17T07:25:28;101413.13;;;10.46;78.77
59043;BME280;44826;51.596;5.624;2022-09-17T07:27:54;101412.16;;;10.52;78.87
59043;BME280;44826;51.596;5.624;2022-09-17T07:30:19;101412.97;;;10.55;77.41
59043;BME280;44826;51.596;5.624;2022-09-17T07:32:45;101411.22;;;10.56;78.05
59043;BME280;44826;51.596;5.624;2022-09-17T07:35:10;101422.47;;;10.58;77.20
59043;BME280;44826;51.596;5.624;2022-09-17T07:37:36;101417.22;;;10.59;77.14
59043;BME280;44826;51.596;5.624;2022-09-17T07:40:02;101406.78;;;10.61;77.04
59043;BME280;44826;51.596;5.624;2022-09-17T07:42:30;101416.31;;;10.63;76.61
59043;BME280;44826;51.596;5.624;2022-09-17T07:44:57;101414.50;;;10.67;76.14
59043;BME280;44826;51.596;5.624;2022-09-17T07:47:22;101410.09;;;10.72;77.22
59043;BME280;44826;51.596;5.624;2022-09-17T07:49:47;101411.72;;;10.76;75.77
59043;BME280;44826;51.596;5.624;2022-09-17T07:52:13;101422.03;;;10.83;75.55
59043;BME280;44826;51.596;5.624;2022-09-17T07:54:38;101413.31;;;10.85;75.27
59043;BME280;44826;51.596;5.624;2022-09-17T07:57:04;101418.50;;;10.87;74.72
59043;BME280;44826;51.596;5.624;2022-09-17T07:59:29;101401.13;;;10.89;75.78
59043;BME280;44826;51.596;5.624;2022-09-17T08:01:54;101403.69;;;10.90;75.13
59043;BME280;44826;51.596;5.624;2022-09-17T08:04:20;101414.00;;;10.97;74.71
59043;BME280;44826;51.596;5.624;2022-09-17T08:06:45;101405.16;;;11.04;74.27
59043;BME280;44826;51.596;5.624;2022-09-17T08:09:14;101410.22;;;11.13;73.69
59043;BME280;44826;51.596;5.624;2022-09-17T08:11:41;101412.59;;;11.26;75.23
59043;BME280;44826;51.596;5.624;2022-09-17T08:14:13;101447.22;;;11.29;74.38
59043;BME280;44826;51.596;5.624;2022-09-17T08:16:39;101437.69;;;11.28;74.62
59043;BME280;44826;51.596;5.624;2022-09-17T08:19:04;101437.78;;;11.25;76.61
59043;BME280;44826;51.596;5.624;2022-09-17T08:21:30;101433.50;;;11.21;76.77
59043;BME280;44826;51.596;5.624;2022-09-17T08:23:55;101428.41;;;11.15;75.96
59043;BME280;44826;51.596;5.624;2022-09-17T08:26:22;101430.31;;;11.06;75.91
59043;BME280;44826;51.596;5.624;2022-09-17T08:28:51;101424.38;;;10.98;77.02
59043;BME280;44826;51.596;5.624;2022-09-17T08:31:18;101435.66;;;10.97;78.53
59043;BME280;44826;51.596;5.624;2022-09-17T08:33:45;101433.91;;;11.01;79.58
59043;BME280;44826;51.596;5.624;2022-09-17T08:36:13;101434.69;;;11.04;77.71
59043;BME280;44826;51.596;5.624;2022-09-17T08:38:39;101427.66;;;11.10;77.50
59043;BME280;44826;51.596;5.624;2022-09-17T08:43:40;101428.34;;;11.18;77.37
59043;BME280;44826;51.596;5.624;2022-09-17T08:46:10;101423.94;;;11.23;78.19
59043;BME280;44826;51.596;5.624;2022-09-17T08:48:47;101424.66;;;11.30;77.35
59043;BME280;44826;51.596;5.624;2022-09-17T08:54:05;101420.03;;;11.44;76.22
59043;BME280;44826;51.596;5.624;2022-09-17T08:56:35;101412.00;;;11.55;77.90
59043;BME280;44826;51.596;5.624;2022-09-17T08:59:25;101416.97;;;11.67;76.05
59043;BME280;44826;51.596;5.624;2022-09-17T09:02:11;101417.50;;;11.82;75.80
59043;BME280;44826;51.596;5.624;2022-09-17T09:07:24;101412.81;;;11.99;73.95
59043;BME280;44826;51.596;5.624;2022-09-17T09:10:11;101423.88;;;12.11;73.74
59043;BME280;44826;51.596;5.624;2022-09-17T09:12:39;101420.94;;;12.25;71.65
59043;BME280;44826;51.596;5.624;2022-09-17T09:15:14;101415.53;;;12.33;74.78
59043;BME280;44826;51.596;5.624;2022-09-17T09:17:43;101422.47;;;12.34;69.73
59043;BME280;44826;51.596;5.624;2022-09-17T09:20:19;101420.63;;;12.39;71.50
59043;BME280;44826;51.596;5.624;2022-09-17T09:22:49;101418.84;;;12.41;68.68
59043;BME280;44826;51.596;5.624;2022-09-17T09:25:24;101417.03;;;12.43;69.09
59043;BME280;44826;51.596;5.624;2022-09-17T09:30:16;101428.25;;;12.47;68.58
59043;BME280;44826;51.596;5.624;2022-09-17T09:32:59;101422.19;;;12.46;70.28
59043;BME280;44826;51.596;5.624;2022-09-17T09:35:30;101424.91;;;12.41;68.98
59043;BME280;44826;51.596;5.624;2022-09-17T09:40:50;101430.91;;;12.45;70.41
59043;BME280;44826;51.596;5.624;2022-09-17T09:43:38;101432.41;;;12.55;69.90
59043;BME280;44826;51.596;5.624;2022-09-17T09:46:24;101440.97;;;12.60;68.74
59043;BME280;44826;51.596;5.624;2022-09-17T09:51:50;101446.97;;;12.64;68.13
59043;BME280;44826;51.596;5.624;2022-09-17T09:54:36;101449.53;;;12.66;67.44
59043;BME280;44826;51.596;5.624;2022-09-17T09:57:08;101452.34;;;12.58;66.22
59043;BME280;44826;51.596;5.624;2022-09-17T09:59:34;101447.28;;;12.52;65.85
59043;BME280;44826;51.596;5.624;2022-09-17T10:02:01;101443.97;;;12.45;65.58
59043;BME280;44826;51.596;5.624;2022-09-17T10:04:27;101440.56;;;12.41;65.67
59043;BME280;44826;51.596;5.624;2022-09-17T10:07:01;101437.94;;;12.43;66.94
59043;BME280;44826;51.596;5.624;2022-09-17T10:09:28;101435.25;;;12.44;66.30
59043;BME280;44826;51.596;5.624;2022-09-17T10:14:32;101431.44;;;12.59;66.25
59043;BME280;44826;51.596;5.624;2022-09-17T10:19:39;101433.66;;;12.75;65.40
59043;BME280;44826;51.596;5.624;2022-09-17T10:22:34;101440.53;;;12.78;66.11
59043;BME280;44826;51.596;5.624;2022-09-17T10:25:01;101433.66;;;12.75;64.74
59043;BME280;44826;51.596;5.624;2022-09-17T10:27:27;101424.06;;;12.75;65.35
59043;BME280;44826;51.596;5.624;2022-09-17T10:32:37;101419.53;;;12.82;66.34
59043;BME280;44826;51.596;5.624;2022-09-17T10:35:05;101419.63;;;12.79;64.32
59043;BME280;44826;51.596;5.624;2022-09-17T10:37:49;101415.38;;;12.75;64.68
59043;BME280;44826;51.596;5.624;2022-09-17T10:43:12;101443.84;;;12.86;65.38
59043;BME280;44826;51.596;5.624;2022-09-17T10:45:30;101419.53;;;12.82;63.87
59043;BME280;44826;51.596;5.624;2022-09-17T10:47:56;101424.03;;;12.77;65.81
59043;BME280;44826;51.596;5.624;2022-09-17T10:50:29;101437.16;;;12.74;65.12
59043;BME280;44826;51.596;5.624;2022-09-17T10:52:58;101435.44;;;12.73;66.07
59043;BME280;44826;51.596;5.624;2022-09-17T10:55:47;101435.44;;;12.73;65.17
59043;BME280;44826;51.596;5.624;2022-09-17T11:03:48;101418.91;;;12.72;66.51
59043;BME280;44826;51.596;5.624;2022-09-17T11:12:27;101401.34;;;13.12;66.32
59043;BME280;44826;51.596;5.624;2022-09-17T11:23:26;101400.25;;;13.53;65.32
59043;BME280;44826;51.596;5.624;2022-09-17T11:31:28;101404.97;;;13.40;64.57
59043;BME280;44826;51.596;5.624;2022-09-17T11:36:45;101404.88;;;13.43;64.51
59043;BME280;44826;51.596;5.624;2022-09-17T11:39:16;101396.09;;;13.45;63.75
59043;BME280;44826;51.596;5.624;2022-09-17T11:41:45;101391.78;;;13.44;62.16
59043;BME280;44826;51.596;5.624;2022-09-17T11:44:40;101400.53;;;13.43;62.98
59043;BME280;44826;51.596;5.624;2022-09-17T11:47:12;101388.34;;;13.42;63.29
59043;BME280;44826;51.596;5.624;2022-09-17T11:49:45;101395.22;;;13.46;62.51
59043;BME280;44826;51.596;5.624;2022-09-17T11:52:20;101390.88;;;13.45;61.92
59043;BME280;44826;51.596;5.624;2022-09-17T11:54:59;101388.06;;;13.51;63.36
59043;BME280;44826;51.596;5.624;2022-09-17T11:57:32;101381.84;;;13.56;63.60
59043;BME280;44826;51.596;5.624;2022-09-17T12:00:13;101374.78;;;13.59;63.97
59043;BME280;44826;51.596;5.624;2022-09-17T12:03:02;101398.06;;;13.67;63.92
59043;BME280;44826;51.596;5.624;2022-09-17T12:05:35;101382.28;;;13.70;62.99
59043;BME280;44826;51.596;5.624;2022-09-17T12:08:20;101383.19;;;13.69;59.81
59043;BME280;44826;51.596;5.624;2022-09-17T12:11:18;101363.28;;;13.65;61.45
59043;BME280;44826;51.596;5.624;2022-09-17T12:13:51;101379.81;;;13.65;60.24
59043;BME280;44826;51.596;5.624;2022-09-17T12:16:23;101354.41;;;13.71;59.86
59043;BME280;44826;51.596;5.624;2022-09-17T12:19:03;101348.06;;;13.78;62.07
59043;BME280;44826;51.596;5.624;2022-09-17T12:21:42;101351.50;;;13.80;60.80
59043;BME280;44826;51.596;5.624;2022-09-17T12:24:21;101364.66;;;13.77;61.21
59043;BME280;44826;51.596;5.624;2022-09-17T12:34:56;101391.88;;;13.41;64.61
59043;BME280;44826;51.596;5.624;2022-09-17T12:40:20;101384.03;;;13.40;66.28
59043;BME280;44826;51.596;5.624;2022-09-17T12:43:44;101381.31;;;13.44;66.88
59043;BME280;44826;51.596;5.624;2022-09-17T12:49:13;101369.50;;;13.61;66.83
59043;BME280;44826;51.596;5.624;2022-09-17T12:51:58;101363.19;;;13.68;66.54
59043;BME280;44826;51.596;5.624;2022-09-17T13:00:11;101354.50;;;13.96;62.31
59043;BME280;44826;51.596;5.624;2022-09-17T13:05:26;101346.16;;;14.11;63.13
59043;BME280;44826;51.596;5.624;2022-09-17T13:14:06;101339.88;;;14.42;51.41
59043;BME280;44826;51.596;5.624;2022-09-17T13:16:40;101346.66;;;14.50;48.18
59043;BME280;44826;51.596;5.624;2022-09-17T13:21:52;101360.88;;;14.68;48.82
59043;BME280;44826;51.596;5.624;2022-09-17T13:24:24;101361.53;;;14.75;47.60
59043;BME280;44826;51.596;5.624;2022-09-17T13:26:52;101354.25;;;14.83;45.50
59043;BME280;44826;51.596;5.624;2022-09-17T13:37:42;101366.47;;;15.08;50.69
59043;BME280;44826;51.596;5.624;2022-09-17T13:42:50;101361.50;;;15.00;53.20
59043;BME280;44826;51.596;5.624;2022-09-17T13:45:20;101360.56;;;15.02;53.75
59043;BME280;44826;51.596;5.624;2022-09-17T13:47:55;101359.50;;;15.07;54.74
59043;BME280;44826;51.596;5.624;2022-09-17T13:52:57;101358.72;;;15.05;53.25
59043;BME280;44826;51.596;5.624;2022-09-17T13:55:35;101376.94;;;15.08;52.85
59043;BME280;44826;51.596;5.624;2022-09-17T13:58:07;101356.78;;;15.10;52.62
59043;BME280;44826;51.596;5.624;2022-09-17T14:13:45;101370.75;;;15.34;50.23
59043;BME280;44826;51.596;5.624;2022-09-17T14:24:23;101364.78;;;15.30;50.35
59043;BME280;44826;51.596;5.624;2022-09-17T14:27:09;101370.19;;;15.26;51.77
59043;BME280;44826;51.596;5.624;2022-09-17T14:32:47;101378.06;;;15.26;51.58
59043;BME280;44826;51.596;5.624;2022-09-17T14:35:30;101399.84;;;15.28;52.79
59043;BME280;44826;51.596;5.624;2022-09-17T14:38:01;101366.81;;;15.22;50.92
59043;BME280;44826;51.596;5.624;2022-09-17T14:40:27;101363.38;;;15.20;51.28
59043;BME280;44826;51.596;5.624;2022-09-17T14:42:56;101368.63;;;15.20;51.90
59043;BME280;44826;51.596;5.624;2022-09-17T14:45:31;101374.91;;;15.16;51.83
59043;BME280;44826;51.596;5.624;2022-09-17T14:50:41;101369.88;;;15.10;49.42
59043;BME280;44826;51.596;5.624;2022-09-17T14:53:14;101365.56;;;15.09;51.17
59043;BME280;44826;51.596;5.624;2022-09-17T14:55:40;101364.47;;;15.14;52.36
59043;BME280;44826;51.596;5.624;2022-09-17T14:58:31;101369.56;;;15.19;50.89
59043;BME280;44826;51.596;5.624;2022-09-17T15:00:58;101373.84;;;15.22;52.36
59043;BME280;44826;51.596;5.624;2022-09-17T15:03:24;101361.72;;;15.19;49.47
59043;BME280;44826;51.596;5.624;2022-09-17T15:05:49;101365.09;;;15.21;50.46
59043;BME280;44826;51.596;5.624;2022-09-17T15:08:26;101367.78;;;15.20;50.64
59043;BME280;44826;51.596;5.624;2022-09-17T15:11:02;101377.53;;;15.16;49.38
59043;BME280;44826;51.596;5.624;2022-09-17T15:13:34;101366.25;;;15.14;46.21
59043;BME280;44826;51.596;5.624;2022-09-17T15:16:13;101373.25;;;15.13;47.35
59043;BME280;44826;51.596;5.624;2022-09-17T15:18:42;101367.16;;;15.13;44.48
59043;BME280;44826;51.596;5.624;2022-09-17T15:23:48;101367.06;;;15.16;45.44
59043;BME280;44826;51.596;5.624;2022-09-17T15:26:16;101365.09;;;15.21;45.92
59043;BME280;44826;51.596;5.624;2022-09-17T15:28:43;101379.00;;;15.23;45.37
59043;BME280;44826;51.596;5.624;2022-09-17T15:31:17;101378.06;;;15.26;47.00
59043;BME280;44826;51.596;5.624;2022-09-17T15:33:44;101376.16;;;15.29;44.96
59043;BME280;44826;51.596;5.624;2022-09-17T15:36:21;101371.72;;;15.31;47.81
59043;BME280;44826;51.596;5.624;2022-09-17T15:38:48;101373.19;;;15.39;46.00
59043;BME280;44826;51.596;5.624;2022-09-17T15:43:43;101368.75;;;15.41;45.57
59043;BME280;44826;51.596;5.624;2022-09-17T15:46:27;101382.72;;;15.41;47.90
59043;BME280;44826;51.596;5.624;2022-09-17T15:48:54;101381.75;;;15.44;48.28
59043;BME280;44826;51.596;5.624;2022-09-17T15:51:23;101385.28;;;15.43;50.42